createdAt,value
2023-04-16T00:01:02.688Z,30.60
2023-04-16T00:03:31.058Z,31.20
2023-04-16T00:05:59.371Z,30.83
2023-04-16T00:08:28.892Z,30.97
2023-04-16T00:10:57.065Z,30.70
2023-04-16T00:13:26.141Z,30.57
2023-04-16T00:15:54.238Z,31.13
2023-04-16T00:18:22.411Z,30.30
2023-04-16T00:20:50.850Z,31.90
2023-04-16T00:23:18.994Z,31.70
2023-04-16T00:25:48.736Z,32.40
2023-04-16T00:28:16.837Z,31.83
2023-04-16T00:30:45.011Z,32.23
2023-04-16T00:33:13.186Z,33.57
2023-04-16T00:35:41.296Z,33.33
2023-04-16T00:38:10.300Z,32.23
2023-04-16T00:40:38.695Z,32.30
2023-04-16T00:43:08.258Z,34.03
2023-04-16T00:45:37.273Z,33.07
2023-04-16T00:48:05.924Z,34.33
2023-04-16T00:50:34.904Z,33.20
2023-04-16T00:53:04.021Z,33.97
2023-04-16T00:55:32.761Z,34.30
2023-04-16T00:58:01.434Z,34.97
2023-04-16T01:00:31.068Z,33.20
2023-04-16T01:03:01.308Z,32.63
2023-04-16T01:05:29.709Z,31.47
2023-04-16T01:08:01.104Z,33.57
2023-04-16T01:10:29.350Z,33.23
2023-04-16T01:12:57.452Z,32.90
2023-04-16T01:15:25.600Z,26.27
2023-04-16T01:17:55.171Z,34.67
2023-04-16T01:20:23.511Z,33.80
2023-04-16T01:22:52.986Z,34.97
2023-04-16T01:25:21.695Z,34.50
2023-04-16T01:27:50.897Z,33.63
2023-04-16T01:30:19.136Z,34.60
2023-04-16T01:32:58.321Z,34.50
2023-04-16T01:35:26.551Z,35.50
2023-04-16T01:37:56.250Z,35.30
2023-04-16T01:40:24.455Z,35.50
2023-04-16T01:42:52.640Z,34.23
2023-04-16T01:45:21.030Z,34.13
2023-04-16T01:47:51.146Z,33.53
2023-04-16T01:50:20.209Z,35.20
2023-04-16T01:52:48.530Z,33.30
2023-04-16T01:55:18.090Z,32.43
2023-04-16T01:57:46.355Z,34.90
2023-04-16T02:00:15.957Z,34.97
2023-04-16T02:02:49.251Z,34.33
2023-04-16T02:05:25.267Z,33.57
2023-04-16T02:07:53.745Z,35.30
2023-04-16T02:10:23.412Z,34.00
2023-04-16T02:12:51.634Z,34.13
2023-04-16T02:15:20.161Z,33.60
2023-04-16T02:17:50.978Z,34.50
2023-04-16T02:20:19.730Z,32.20
2023-04-16T02:22:54.020Z,34.20
2023-04-16T02:25:26.344Z,34.40
2023-04-16T02:27:56.758Z,32.90
2023-04-16T02:30:31.947Z,32.03
2023-04-16T02:33:01.224Z,34.30
2023-04-16T02:35:29.518Z,33.93
2023-04-16T02:37:57.803Z,34.43
2023-04-16T02:40:27.696Z,33.63
2023-04-16T02:42:56.094Z,32.83
2023-04-16T02:45:24.511Z,34.20
2023-04-16T02:47:52.824Z,35.77
2023-04-16T02:50:21.113Z,34.03
2023-04-16T02:52:49.415Z,34.87
2023-04-16T02:55:17.744Z,37.23
2023-04-16T02:57:47.284Z,35.90
2023-04-16T03:00:15.903Z,36.53
2023-04-16T03:02:44.130Z,36.17
2023-04-16T03:05:12.961Z,33.90
2023-04-16T03:07:41.163Z,36.87
2023-04-16T03:10:11.908Z,36.67
2023-04-16T03:12:40.254Z,36.80
2023-04-16T03:15:11.327Z,35.60
2023-04-16T03:17:39.401Z,36.60
2023-04-16T03:20:09.172Z,36.70
2023-04-16T03:22:37.345Z,36.10
2023-04-16T03:25:06.102Z,37.73
2023-04-16T03:27:34.588Z,36.57
2023-04-16T03:30:03.351Z,35.97
2023-04-16T03:32:34.041Z,38.23
2023-04-16T03:35:03.864Z,35.17
2023-04-16T03:37:32.571Z,36.77
2023-04-16T03:40:01.188Z,36.47
2023-04-16T03:42:29.282Z,35.93
2023-04-16T03:44:59.422Z,36.40
2023-04-16T03:47:28.140Z,35.80
2023-04-16T03:50:01.948Z,36.40
2023-04-16T03:52:30.202Z,36.10
2023-04-16T03:54:58.430Z,36.23
2023-04-16T03:57:31.955Z,38.47
2023-04-16T04:00:07.743Z,39.03
2023-04-16T04:02:58.799Z,36.50
2023-04-16T04:05:28.402Z,37.40
2023-04-16T04:07:56.571Z,38.33
2023-04-16T04:10:25.090Z,39.27
2023-04-16T04:12:53.193Z,39.10
2023-04-16T04:15:21.331Z,38.37
2023-04-16T04:17:49.757Z,35.67
2023-04-16T04:20:18.079Z,38.23
2023-04-16T04:22:51.356Z,36.17
2023-04-16T04:25:22.097Z,36.10
2023-04-16T04:27:50.326Z,36.47
2023-04-16T04:30:18.676Z,37.17
2023-04-16T04:32:47.108Z,37.43
2023-04-16T04:35:17.448Z,34.67
2023-04-16T04:37:45.926Z,36.17
2023-04-16T04:40:21.846Z,36.80
2023-04-16T04:42:50.050Z,36.30
2023-04-16T04:45:18.184Z,37.40
2023-04-16T04:47:46.388Z,37.03
2023-04-16T04:50:14.710Z,37.00
2023-04-16T04:52:42.818Z,39.40
2023-04-16T04:55:11.337Z,36.07
2023-04-16T04:57:41.062Z,36.17
2023-04-16T05:00:10.646Z,38.03
2023-04-16T05:02:53.480Z,36.70
2023-04-16T05:05:21.837Z,37.23
2023-04-16T05:07:49.979Z,37.53
2023-04-16T05:10:18.241Z,37.40
2023-04-16T05:12:49.235Z,37.90
2023-04-16T05:15:18.507Z,36.17
2023-04-16T05:17:46.646Z,35.83
2023-04-16T05:20:14.829Z,36.20
2023-04-16T05:22:43.060Z,37.10
2023-04-16T05:25:11.703Z,38.33
2023-04-16T05:27:40.620Z,35.83
2023-04-16T05:30:11.514Z,34.87
2023-04-16T05:32:40.985Z,35.10
2023-04-16T05:35:11.035Z,35.20
2023-04-16T05:37:39.098Z,35.37
2023-04-16T05:40:08.937Z,34.67
2023-04-16T05:42:37.009Z,33.30
2023-04-16T05:45:06.081Z,32.90
2023-04-16T05:47:35.612Z,34.40
2023-04-16T05:50:03.747Z,34.00
2023-04-16T05:52:31.805Z,33.57
2023-04-16T05:55:01.683Z,32.90
2023-04-16T05:57:30.094Z,32.03
2023-04-16T05:59:58.443Z,30.47
2023-04-16T06:02:26.771Z,32.33
2023-04-16T06:04:56.422Z,31.47
2023-04-16T06:07:24.498Z,32.17
2023-04-16T06:09:52.590Z,30.70
2023-04-16T06:12:20.742Z,29.77
2023-04-16T06:14:48.797Z,29.57
2023-04-16T06:17:16.851Z,31.20
2023-04-16T06:19:44.991Z,28.43
2023-04-16T06:22:14.655Z,28.87
2023-04-16T06:24:42.854Z,28.17
2023-04-16T06:27:11.324Z,28.97
2023-04-16T06:29:41.380Z,28.10
2023-04-16T06:32:10.174Z,28.80
2023-04-16T06:34:39.000Z,27.33
2023-04-16T06:37:09.854Z,26.93
2023-04-16T06:39:40.072Z,27.30
2023-04-16T06:42:08.345Z,27.20
2023-04-16T06:44:37.200Z,27.93
2023-04-16T06:47:05.470Z,28.03
2023-04-16T06:49:33.630Z,26.27
2023-04-16T06:52:03.887Z,27.07
2023-04-16T06:54:33.364Z,26.07
2023-04-16T06:57:02.838Z,25.70
2023-04-16T06:59:31.068Z,27.00
2023-04-16T07:01:59.332Z,25.97
2023-04-16T07:04:27.512Z,25.10
2023-04-16T07:06:55.649Z,25.60
2023-04-16T07:09:23.753Z,26.50
2023-04-16T07:11:51.843Z,24.03
2023-04-16T07:14:21.466Z,26.00
2023-04-16T07:16:49.583Z,24.43
2023-04-16T07:19:17.734Z,25.03
2023-04-16T07:21:46.211Z,26.20
2023-04-16T07:24:14.329Z,25.70
2023-04-16T07:26:42.439Z,24.77
2023-04-16T07:29:10.648Z,26.53
2023-04-16T07:31:40.397Z,25.00
2023-04-16T07:34:08.473Z,24.70
2023-04-16T07:36:36.556Z,25.10
2023-04-16T07:39:05.751Z,22.30
2023-04-16T07:41:34.157Z,25.50
2023-04-16T07:44:02.385Z,24.57
2023-04-16T07:46:39.320Z,24.57
2023-04-16T07:49:13.214Z,25.83
2023-04-16T07:51:41.340Z,24.17
2023-04-16T07:54:09.526Z,24.33
2023-04-16T07:56:37.671Z,23.80
2023-04-16T07:59:21.191Z,23.10
2023-04-16T08:01:51.511Z,24.90
2023-04-16T08:04:24.959Z,22.70
2023-04-16T08:06:54.144Z,22.67
2023-04-16T08:09:23.976Z,24.67
2023-04-16T08:11:54.955Z,23.43
2023-04-16T08:14:23.215Z,24.13
2023-04-16T08:16:51.368Z,23.83
2023-04-16T08:19:20.837Z,25.13
2023-04-16T08:21:49.091Z,23.80
2023-04-16T08:24:17.184Z,24.20
2023-04-16T08:26:45.494Z,24.90
2023-04-16T08:29:13.930Z,23.43
2023-04-16T08:31:42.710Z,23.60
2023-04-16T08:34:12.252Z,22.97
2023-04-16T08:36:47.202Z,24.37
2023-04-16T08:39:15.410Z,22.50
2023-04-16T08:41:46.722Z,22.80
2023-04-16T08:44:21.057Z,22.93
2023-04-16T08:46:54.794Z,22.47
2023-04-16T08:49:23.618Z,24.30
2023-04-16T08:51:54.244Z,23.07
2023-04-16T08:54:32.382Z,22.80
2023-04-16T08:57:01.481Z,23.50
2023-04-16T08:59:30.531Z,22.37
2023-04-16T09:02:00.199Z,22.57
2023-04-16T09:04:29.476Z,22.40
2023-04-16T09:07:00.258Z,22.73
2023-04-16T09:10:27.047Z,22.50
2023-04-16T09:12:57.294Z,22.40
2023-04-16T09:15:26.295Z,22.87
2023-04-16T09:17:56.434Z,22.90
2023-04-16T09:20:36.771Z,24.00
2023-04-16T09:23:06.325Z,21.80
2023-04-16T09:25:35.721Z,20.70
2023-04-16T09:28:03.896Z,21.83
2023-04-16T09:30:32.042Z,21.70
2023-04-16T09:33:16.751Z,22.93
2023-04-16T09:35:48.671Z,22.07
2023-04-16T09:38:18.651Z,21.10
2023-04-16T09:40:48.156Z,22.10
2023-04-16T09:43:18.299Z,21.10
2023-04-16T09:45:51.733Z,22.63
2023-04-16T09:48:30.029Z,22.30
2023-04-16T09:50:58.524Z,23.10
2023-04-16T09:53:29.343Z,23.07
2023-04-16T09:55:58.411Z,22.40
2023-04-16T09:58:27.042Z,22.83
2023-04-16T10:00:58.129Z,20.50
2023-04-16T10:03:33.297Z,22.30
2023-04-16T10:06:03.162Z,21.73
2023-04-16T10:08:32.583Z,22.00
2023-04-16T10:11:00.971Z,20.97
2023-04-16T10:13:31.165Z,19.40
2023-04-16T10:15:59.732Z,20.00
2023-04-16T10:18:28.625Z,22.03
2023-04-16T10:20:56.974Z,21.87
2023-04-16T10:23:25.140Z,20.83
2023-04-16T10:25:57.582Z,19.77
2023-04-16T10:28:27.142Z,20.50
2023-04-16T10:30:57.931Z,19.50
2023-04-16T10:33:28.283Z,20.37
2023-04-16T10:36:09.506Z,18.67
2023-04-16T10:38:40.460Z,20.30
2023-04-16T10:41:10.328Z,19.90
2023-04-16T10:44:35.068Z,20.13
2023-04-16T10:47:03.472Z,18.87
2023-04-16T10:49:31.593Z,19.47
2023-04-16T10:52:02.376Z,17.67
2023-04-16T10:54:31.674Z,19.20
2023-04-16T10:57:05.169Z,19.83
2023-04-16T10:59:35.348Z,19.10
2023-04-16T11:02:08.628Z,19.00
2023-04-16T11:04:38.104Z,19.03
2023-04-16T11:07:09.047Z,20.53
2023-04-16T11:10:02.296Z,18.10
2023-04-16T11:12:38.144Z,19.80
2023-04-16T11:15:08.505Z,18.27
2023-04-16T11:17:40.046Z,20.83
2023-04-16T11:20:19.415Z,19.07
2023-04-16T11:22:48.906Z,17.83
2023-04-16T11:25:21.126Z,18.07
2023-04-16T11:27:51.263Z,18.63
2023-04-16T11:30:20.047Z,18.67
2023-04-16T11:32:48.289Z,19.37
2023-04-16T11:35:18.574Z,18.10
2023-04-16T11:37:48.286Z,19.07
2023-04-16T11:40:16.640Z,17.40
2023-04-16T11:42:45.463Z,18.70
2023-04-16T11:45:15.183Z,18.73
2023-04-16T11:47:47.557Z,16.40
2023-04-16T11:50:20.184Z,17.23
2023-04-16T11:52:48.995Z,17.27
2023-04-16T11:55:17.125Z,17.87
2023-04-16T11:57:45.949Z,18.07
2023-04-16T12:00:16.474Z,17.40
2023-04-16T12:02:46.596Z,17.60
2023-04-16T12:05:29.014Z,17.30
2023-04-16T12:07:57.388Z,17.00
2023-04-16T12:10:25.635Z,16.63
2023-04-16T12:12:53.895Z,17.77
2023-04-16T12:15:23.328Z,16.90
2023-04-16T12:17:54.497Z,18.13
2023-04-16T12:20:22.671Z,17.17
2023-04-16T12:22:52.718Z,18.30
2023-04-16T12:25:21.054Z,18.43
2023-04-16T12:27:53.427Z,17.70
2023-04-16T12:30:24.657Z,17.90
2023-04-16T12:32:56.675Z,17.37
2023-04-16T12:35:34.253Z,16.23
2023-04-16T12:38:03.493Z,18.23
2023-04-16T12:40:31.618Z,18.47
2023-04-16T12:42:59.686Z,17.50
2023-04-16T12:45:29.413Z,18.00
2023-04-16T12:47:57.640Z,18.00
2023-04-16T12:50:25.966Z,17.40
2023-04-16T12:52:54.090Z,17.90
2023-04-16T12:55:22.294Z,17.97
2023-04-16T12:57:52.793Z,17.50
2023-04-16T13:00:21.486Z,17.97
2023-04-16T13:02:51.116Z,18.27
2023-04-16T13:05:19.621Z,20.00
2023-04-16T13:07:47.829Z,20.83
2023-04-16T13:10:16.774Z,19.53
2023-04-16T13:12:46.512Z,19.67
2023-04-16T13:15:14.674Z,19.07
2023-04-16T13:17:42.793Z,20.97
2023-04-16T13:20:12.972Z,19.73
2023-04-16T13:22:41.324Z,20.90
2023-04-16T13:25:10.801Z,19.57
2023-04-16T13:27:38.917Z,20.33
2023-04-16T13:30:08.394Z,19.43
2023-04-16T13:32:36.955Z,19.87
2023-04-16T13:35:05.339Z,20.03
2023-04-16T13:37:35.522Z,20.90
2023-04-16T13:40:03.961Z,20.60
2023-04-16T13:42:32.423Z,21.47
2023-04-16T13:45:01.257Z,21.40
2023-04-16T13:47:30.089Z,21.17
2023-04-16T13:49:58.446Z,20.00
2023-04-16T13:52:26.472Z,20.07
2023-04-16T13:54:56.355Z,20.07
2023-04-16T13:57:26.107Z,22.37
2023-04-16T13:59:54.281Z,22.27
2023-04-16T14:02:22.913Z,21.73
2023-04-16T14:04:51.115Z,21.63
2023-04-16T14:07:21.145Z,22.13
2023-04-16T14:09:49.221Z,21.60
2023-04-16T14:12:18.709Z,21.47
2023-04-16T14:14:47.195Z,21.77
2023-04-16T14:17:18.337Z,20.50
2023-04-16T14:19:46.482Z,21.13
2023-04-16T14:22:17.735Z,20.37
2023-04-16T14:24:46.076Z,20.33
2023-04-16T14:27:14.258Z,21.57
2023-04-16T14:29:44.368Z,21.60
2023-04-16T14:32:12.520Z,21.87
2023-04-16T14:34:40.696Z,21.43
2023-04-16T14:37:09.033Z,22.30
2023-04-16T14:39:39.094Z,21.03
2023-04-16T14:42:07.349Z,21.73
2023-04-16T14:44:35.599Z,22.53
2023-04-16T14:47:06.057Z,20.70
2023-04-16T14:49:34.518Z,20.43
2023-04-16T14:52:05.270Z,21.40
2023-04-16T14:54:34.031Z,22.40
2023-04-16T14:57:03.576Z,21.60
2023-04-16T14:59:32.341Z,21.53
2023-04-16T15:02:00.951Z,21.67
2023-04-16T15:04:31.550Z,19.13
2023-04-16T15:07:00.671Z,20.77
2023-04-16T15:09:28.915Z,21.00
2023-04-16T15:11:58.109Z,19.63
2023-04-16T15:14:26.343Z,21.50
2023-04-16T15:16:55.046Z,21.63
2023-04-16T15:19:23.355Z,20.00
2023-04-16T15:21:52.998Z,21.00
2023-04-16T15:24:21.104Z,20.83
2023-04-16T15:26:49.260Z,21.17
2023-04-16T15:29:17.366Z,21.40
2023-04-16T15:31:45.524Z,20.63
2023-04-16T15:34:13.917Z,20.60
2023-04-16T15:36:42.679Z,20.87
2023-04-16T15:39:12.397Z,21.43
2023-04-16T15:41:53.663Z,20.93
2023-04-16T15:44:27.782Z,21.00
2023-04-16T15:46:55.911Z,23.20
2023-04-16T15:49:24.745Z,19.93
2023-04-16T15:51:53.351Z,21.33
2023-04-16T15:54:22.997Z,21.90
2023-04-16T15:56:52.027Z,21.50
2023-04-16T15:59:20.314Z,22.00
2023-04-16T16:04:46.164Z,22.23
2023-04-16T16:07:15.750Z,20.60
2023-04-16T16:09:45.325Z,21.13
2023-04-16T16:12:13.483Z,21.90
2023-04-16T16:14:43.298Z,22.70
2023-04-16T16:17:11.399Z,23.80
2023-04-16T16:19:39.435Z,21.50
2023-04-16T16:22:09.292Z,23.07
2023-04-16T16:24:37.399Z,22.20
2023-04-16T16:27:06.993Z,21.67
2023-04-16T16:29:35.088Z,21.30
2023-04-16T16:32:03.537Z,22.60
2023-04-16T16:34:31.879Z,23.03
2023-04-16T16:37:00.062Z,22.97
2023-04-16T16:39:28.378Z,22.47
2023-04-16T16:41:56.877Z,24.93
2023-04-16T16:44:26.530Z,24.27
2023-04-16T16:46:54.774Z,23.80
2023-04-16T16:49:22.931Z,24.30
2023-04-16T16:51:51.187Z,25.53
2023-04-16T16:54:19.488Z,25.50
2023-04-16T16:59:37.134Z,26.37
2023-04-16T17:02:05.929Z,27.97
2023-04-16T17:04:34.405Z,28.40
2023-04-16T17:07:02.772Z,28.30
2023-04-16T17:09:31.169Z,29.43
2023-04-16T17:12:01.507Z,27.17
2023-04-16T17:14:29.717Z,28.23
2023-04-16T17:17:07.712Z,26.43
2023-04-16T17:19:54.921Z,28.47
2023-04-16T17:22:23.093Z,27.90
2023-04-16T17:24:51.144Z,25.87
2023-04-16T17:27:19.326Z,24.33
2023-04-16T17:29:47.358Z,23.20
2023-04-16T17:32:17.015Z,24.33
2023-04-16T17:34:45.316Z,25.13
2023-04-16T17:37:14.140Z,25.40
2023-04-16T17:39:42.230Z,23.17
2023-04-16T17:42:10.343Z,25.93
2023-04-16T17:44:38.533Z,23.87
2023-04-16T17:47:06.948Z,23.03
2023-04-16T17:49:36.505Z,22.17
2023-04-16T17:52:04.796Z,21.10
2023-04-16T17:54:32.999Z,22.20
2023-04-16T17:57:01.790Z,22.30
2023-04-16T17:59:29.972Z,21.30
2023-04-16T18:01:58.385Z,21.47
2023-04-16T18:04:27.096Z,21.63
2023-04-16T18:06:56.902Z,22.23
2023-04-16T18:09:25.082Z,22.03
2023-04-16T18:11:53.258Z,22.63
2023-04-16T18:14:21.509Z,22.27
2023-04-16T18:16:49.851Z,22.17
2023-04-16T18:19:18.079Z,23.13
2023-04-16T18:21:46.630Z,21.90
2023-04-16T18:24:16.174Z,22.07
2023-04-16T18:26:46.710Z,21.87
2023-04-16T18:29:15.496Z,22.13
2023-04-16T18:31:44.333Z,25.80
2023-04-16T18:34:12.640Z,22.63
2023-04-16T18:36:40.847Z,22.10
2023-04-16T18:39:09.210Z,23.33
2023-04-16T18:41:40.069Z,22.87
2023-04-16T18:44:08.329Z,23.23
2023-04-16T18:46:36.594Z,22.60
2023-04-16T18:49:06.687Z,23.43
2023-04-16T18:51:34.770Z,23.00
2023-04-16T18:54:02.993Z,22.70
2023-04-16T18:56:31.091Z,23.63
2023-04-16T18:59:00.654Z,22.80
2023-04-16T19:01:28.755Z,22.13
2023-04-16T19:03:57.044Z,21.90
2023-04-16T19:06:25.185Z,21.10
2023-04-16T19:08:53.248Z,20.37
2023-04-16T19:11:21.321Z,20.57
2023-04-16T19:13:49.374Z,20.30
2023-04-16T19:16:19.097Z,21.33
2023-04-16T19:18:47.290Z,20.20
2023-04-16T19:21:15.565Z,20.30
2023-04-16T19:23:43.661Z,19.40
2023-04-16T19:26:11.935Z,20.40
2023-04-16T19:28:40.065Z,20.27
2023-04-16T19:31:08.333Z,19.73
2023-04-16T19:33:38.093Z,19.60
2023-04-16T19:36:07.831Z,21.10
2023-04-16T19:38:35.990Z,21.50
2023-04-16T19:41:04.104Z,21.70
2023-04-16T19:43:33.352Z,23.33
2023-04-16T19:46:01.541Z,23.20
2023-04-16T19:48:30.365Z,20.77
2023-04-16T19:51:03.242Z,22.50
2023-04-16T19:53:31.395Z,22.70
2023-04-16T19:55:59.532Z,21.90
2023-04-16T19:58:27.636Z,23.67
2023-04-16T20:00:56.418Z,24.67
2023-04-16T20:03:24.713Z,23.90
2023-04-16T20:05:53.171Z,25.20
2023-04-16T20:08:23.252Z,24.27
2023-04-16T20:10:53.878Z,25.57
2023-04-16T20:17:34.991Z,23.33
2023-04-16T20:20:11.219Z,24.13
2023-04-16T20:22:41.624Z,23.80
2023-04-16T20:25:14.332Z,24.27
2023-04-16T20:27:42.451Z,22.13
2023-04-16T20:30:11.302Z,23.60
2023-04-16T20:32:39.343Z,23.63
2023-04-16T20:35:10.872Z,23.97
2023-04-16T20:37:42.266Z,23.97
2023-04-16T20:40:13.858Z,24.90
2023-04-16T20:42:46.335Z,25.50
2023-04-16T20:45:14.639Z,24.63
2023-04-16T20:47:43.462Z,23.67
2023-04-16T20:50:12.326Z,24.80
2023-04-16T20:52:42.261Z,25.60
2023-04-16T20:55:12.253Z,25.30
2023-04-16T20:57:40.568Z,26.80
2023-04-16T21:00:11.881Z,24.80
2023-04-16T21:02:40.196Z,24.80
2023-04-16T21:05:13.875Z,25.80
2023-04-16T21:07:42.496Z,26.70
2023-04-16T21:10:12.594Z,26.57
2023-04-16T21:12:40.710Z,26.17
2023-04-16T21:15:09.521Z,24.60
2023-04-16T21:17:37.746Z,25.30
2023-04-16T21:20:10.577Z,25.30
2023-04-16T21:22:38.724Z,27.77
2023-04-16T21:25:07.950Z,26.43
2023-04-16T21:27:37.489Z,29.43
2023-04-16T21:30:06.541Z,28.80
2023-04-16T21:32:35.005Z,27.37
2023-04-16T21:35:03.792Z,27.83
2023-04-16T21:37:31.916Z,27.90
2023-04-16T21:40:00.063Z,29.33
2023-04-16T21:42:28.268Z,27.67
2023-04-16T21:44:57.707Z,28.57
2023-04-16T21:47:25.932Z,28.17
2023-04-16T21:49:54.058Z,28.20
2023-04-16T21:52:22.497Z,29.17
2023-04-16T21:54:50.973Z,29.97
2023-04-16T21:57:19.066Z,28.80
2023-04-16T21:59:47.170Z,32.23
2023-04-16T22:02:16.942Z,29.00
2023-04-16T22:04:45.131Z,29.57
2023-04-16T22:07:13.452Z,28.67
2023-04-16T22:09:41.601Z,28.93
2023-04-16T22:12:10.284Z,29.50
2023-04-16T22:14:44.080Z,27.13
2023-04-16T22:17:19.043Z,29.80
2023-04-16T22:19:48.895Z,29.80
2023-04-16T22:22:16.973Z,29.40
2023-04-16T22:24:45.090Z,29.47
2023-04-16T22:27:13.333Z,30.30
2023-04-16T22:29:41.534Z,30.13
2023-04-16T22:32:09.698Z,29.30
2023-04-16T22:34:39.390Z,29.10
2023-04-16T22:37:08.144Z,29.37
2023-04-16T22:39:36.371Z,30.50
2023-04-16T22:42:04.628Z,29.20
2023-04-16T22:44:32.853Z,27.37
2023-04-16T22:47:00.950Z,27.87
2023-04-16T22:49:33.018Z,29.40
2023-04-16T22:52:02.769Z,28.57
2023-04-16T22:54:31.076Z,29.97
2023-04-16T22:56:59.746Z,28.23
2023-04-16T22:59:27.794Z,28.93
2023-04-16T23:01:55.971Z,29.60
2023-04-16T23:04:24.175Z,29.20
2023-04-16T23:06:52.384Z,30.60
2023-04-16T23:09:22.510Z,29.73
2023-04-16T23:11:50.840Z,28.77
2023-04-16T23:14:19.471Z,31.40
2023-04-16T23:16:47.602Z,30.50
2023-04-16T23:19:15.787Z,29.97
2023-04-16T23:21:43.886Z,31.43
2023-04-16T23:24:12.222Z,29.40
2023-04-16T23:26:41.621Z,28.03
2023-04-16T23:29:09.935Z,28.80
2023-04-16T23:31:38.238Z,28.70
2023-04-16T23:34:06.328Z,29.00
2023-04-16T23:36:34.439Z,30.43
2023-04-16T23:39:02.524Z,29.03
2023-04-16T23:41:30.640Z,29.97
2023-04-16T23:44:00.310Z,32.23
2023-04-16T23:46:28.421Z,30.80
2023-04-16T23:48:56.534Z,29.37
2023-04-16T23:51:24.648Z,31.87
2023-04-16T23:53:52.740Z,31.37
2023-04-16T23:56:20.846Z,31.73
2023-04-16T23:58:48.924Z,32.37
